createdAt,value
2019-01-30T00:00:27.785Z,78.83
2019-01-30T00:03:22.378Z,82.30
2019-01-30T00:06:17.244Z,85.07
2019-01-30T00:09:16.541Z,85.83
2019-01-30T00:12:11.167Z,89.40
2019-01-30T00:15:05.615Z,88.67
2019-01-30T00:18:00.497Z,92.80
2019-01-30T00:20:54.833Z,90.60
2019-01-30T00:23:49.577Z,90.90
2019-01-30T00:26:44.320Z,91.63
2019-01-30T00:29:38.925Z,93.27
2019-01-30T00:32:33.419Z,100.50
2019-01-30T00:35:27.863Z,105.43
2019-01-30T00:38:22.348Z,104.60
2019-01-30T00:41:16.855Z,105.97
2019-01-30T00:44:11.039Z,108.07
2019-01-30T00:47:15.456Z,104.80
2019-01-30T00:50:01.695Z,103.67
2019-01-30T00:52:56.277Z,97.93
2019-01-30T00:55:50.670Z,97.30
2019-01-30T00:58:45.068Z,99.20
2019-01-30T01:01:39.669Z,97.43
2019-01-30T01:04:34.516Z,100.30
2019-01-30T01:07:29.046Z,100.00
2019-01-30T01:10:23.779Z,97.23
2019-01-30T01:13:18.384Z,94.83
2019-01-30T01:16:13.035Z,94.50
2019-01-30T01:19:07.626Z,93.83
2019-01-30T01:22:03.093Z,93.73
2019-01-30T01:28:07.124Z,92.63
2019-01-30T01:31:04.459Z,97.53
2019-01-30T01:33:59.851Z,97.23
2019-01-30T01:36:55.101Z,98.50
2019-01-30T01:39:51.064Z,100.87
2019-01-30T01:42:44.886Z,104.67
2019-01-30T01:45:39.331Z,107.67
2019-01-30T01:48:34.043Z,115.07
2019-01-30T01:51:28.630Z,115.97
2019-01-30T01:54:23.301Z,116.33
2019-01-30T01:57:18.763Z,120.87
2019-01-30T02:00:16.700Z,116.97
2019-01-30T02:03:11.692Z,104.60
2019-01-30T02:06:06.133Z,105.90
2019-01-30T02:09:00.622Z,95.33
2019-01-30T02:11:55.930Z,91.30
2019-01-30T02:14:50.387Z,89.13
2019-01-30T02:17:44.860Z,86.80
2019-01-30T02:20:39.550Z,87.20
2019-01-30T02:23:34.001Z,88.40
2019-01-30T02:26:28.359Z,90.97
2019-01-30T02:29:22.759Z,85.30
2019-01-30T02:32:17.351Z,75.23
2019-01-30T02:35:11.737Z,74.03
2019-01-30T02:38:06.866Z,68.13
2019-01-30T02:41:01.667Z,57.97
2019-01-30T02:43:56.900Z,50.70
2019-01-30T02:46:51.673Z,48.20
2019-01-30T02:49:55.525Z,44.83
2019-01-30T02:52:53.846Z,43.27
2019-01-30T02:55:48.622Z,41.13
2019-01-30T02:58:43.280Z,38.93
2019-01-30T03:01:45.371Z,36.70
2019-01-30T03:04:39.918Z,39.37
2019-01-30T03:07:34.636Z,40.03
2019-01-30T03:10:29.140Z,38.57
2019-01-30T03:13:23.719Z,40.40
2019-01-30T03:16:18.537Z,37.83
2019-01-30T03:19:13.484Z,35.47
2019-01-30T03:22:08.322Z,32.50
2019-01-30T03:25:03.171Z,32.13
2019-01-30T03:27:57.999Z,29.90
2019-01-30T03:30:53.407Z,28.87
2019-01-30T03:33:49.258Z,27.63
2019-01-30T03:36:44.798Z,27.67
2019-01-30T03:39:43.934Z,31.70
2019-01-30T03:42:45.773Z,31.03
2019-01-30T03:45:54.562Z,30.80
2019-01-30T03:48:52.415Z,31.62
2019-01-30T03:51:54.580Z,32.63
2019-01-30T03:54:49.402Z,31.53
2019-01-30T03:57:45.389Z,31.10
2019-01-30T04:00:44.410Z,32.43
2019-01-30T04:03:45.122Z,32.40
2019-01-30T04:06:43.437Z,32.73
2019-01-30T04:09:38.750Z,34.50
2019-01-30T04:12:35.809Z,31.70
2019-01-30T04:15:30.448Z,30.27
2019-01-30T04:18:25.305Z,28.90
2019-01-30T04:21:23.000Z,26.87
2019-01-30T04:24:18.011Z,28.87
2019-01-30T04:27:19.617Z,26.13
2019-01-30T04:33:23.070Z,26.60
2019-01-30T04:36:18.608Z,25.73
2019-01-30T04:39:14.048Z,25.48
2019-01-30T04:42:11.970Z,26.67
2019-01-30T04:45:07.452Z,24.35
2019-01-30T04:48:07.404Z,25.57
2019-01-30T04:51:02.409Z,23.67
2019-01-30T04:53:56.952Z,23.95
2019-01-30T04:56:59.578Z,23.77
2019-01-30T04:59:54.484Z,24.07
2019-01-30T05:02:52.342Z,24.17
2019-01-30T05:05:46.794Z,23.38
2019-01-30T05:08:41.569Z,22.98
2019-01-30T05:11:55.241Z,22.30
2019-01-30T05:15:03.023Z,24.65
2019-01-30T05:17:56.208Z,22.87
2019-01-30T05:20:58.349Z,25.77
2019-01-30T05:24:06.914Z,22.87
2019-01-30T05:31:45.684Z,23.38
2019-01-30T05:34:40.955Z,24.92
2019-01-30T05:37:36.506Z,22.87
2019-01-30T05:40:42.184Z,21.70
2019-01-30T05:43:52.864Z,24.23
2019-01-30T05:47:16.700Z,22.30
2019-01-30T05:50:17.240Z,23.70
2019-01-30T05:53:12.934Z,23.83
2019-01-30T06:09:04.112Z,19.75
2019-01-30T06:12:23.977Z,20.80
2019-01-30T06:15:45.492Z,22.22
2019-01-30T06:18:52.606Z,19.67
2019-01-30T06:21:47.759Z,20.45
2019-01-30T06:25:05.215Z,19.60
2019-01-30T06:28:32.852Z,19.10
2019-01-30T06:34:50.390Z,17.35
2019-01-30T06:37:47.989Z,18.30
2019-01-30T06:41:27.124Z,18.17
2019-01-30T06:44:23.030Z,19.00
2019-01-30T06:47:29.534Z,18.17
2019-01-30T06:50:26.316Z,18.35
2019-01-30T06:53:30.204Z,16.02
2019-01-30T06:56:26.817Z,17.15
2019-01-30T06:59:22.584Z,16.70
2019-01-30T07:02:17.807Z,16.85
2019-01-30T07:05:13.807Z,15.85
2019-01-30T07:08:09.354Z,16.05
2019-01-30T07:11:10.600Z,16.60
2019-01-30T07:14:00.315Z,16.65
2019-01-30T07:17:15.248Z,15.75
2019-01-30T07:20:14.457Z,24.43
2019-01-30T07:23:13.278Z,18.55
2019-01-30T07:26:14.394Z,17.60
2019-01-30T07:29:09.056Z,17.07
2019-01-30T07:32:05.737Z,17.10
2019-01-30T07:35:05.260Z,17.45
2019-01-30T07:37:59.772Z,20.82
2019-01-30T07:40:55.108Z,18.85
2019-01-30T07:43:57.113Z,20.32
2019-01-30T07:46:52.327Z,19.52
2019-01-30T07:50:17.910Z,18.75
2019-01-30T07:53:18.300Z,18.37
2019-01-30T07:56:16.793Z,18.20
2019-01-30T07:59:11.831Z,19.30
2019-01-30T08:02:06.892Z,28.10
2019-01-30T08:05:08.055Z,21.07
2019-01-30T08:08:01.032Z,20.35
2019-01-30T08:10:56.016Z,19.15
2019-01-30T08:13:52.067Z,20.57
2019-01-30T08:16:48.059Z,19.73
2019-01-30T08:19:43.019Z,19.92
2019-01-30T08:22:44.964Z,20.15
2019-01-30T08:26:04.271Z,19.55
2019-01-30T08:28:58.982Z,20.90
2019-01-30T08:31:53.678Z,20.15
2019-01-30T08:34:50.704Z,19.92
2019-01-30T08:37:46.113Z,20.82
2019-01-30T08:40:41.240Z,19.48
2019-01-30T08:43:41.499Z,20.30
2019-01-30T08:51:07.283Z,21.12
2019-01-30T08:54:23.814Z,20.68
2019-01-30T08:57:21.612Z,19.82
2019-01-30T09:00:19.778Z,19.92
2019-01-30T09:03:15.224Z,20.65
2019-01-30T09:06:10.143Z,20.15
2019-01-30T09:09:06.145Z,21.15
2019-01-30T09:12:00.746Z,22.15
2019-01-30T09:14:55.479Z,23.92
2019-01-30T09:17:56.275Z,22.80
2019-01-30T09:20:50.673Z,21.07
2019-01-30T09:23:45.247Z,22.73
2019-01-30T09:26:40.242Z,21.68
2019-01-30T09:29:35.606Z,20.72
2019-01-30T09:32:30.486Z,21.73
2019-01-30T09:35:28.048Z,21.00
2019-01-30T09:38:23.474Z,21.17
2019-01-30T09:41:19.767Z,20.90
2019-01-30T09:44:17.447Z,22.65
2019-01-30T09:47:10.700Z,25.55
2019-01-30T09:50:07.455Z,22.52
2019-01-30T09:53:02.748Z,25.52
2019-01-30T09:55:59.747Z,24.98
2019-01-30T09:58:59.366Z,21.55
2019-01-30T10:01:52.471Z,21.70
2019-01-30T10:04:47.266Z,22.45
2019-01-30T10:07:42.329Z,22.67
2019-01-30T10:10:38.767Z,21.05
2019-01-30T10:13:34.423Z,21.25
2019-01-30T10:16:46.077Z,22.42
2019-01-30T10:20:01.544Z,20.43
2019-01-30T10:23:06.675Z,21.07
2019-01-30T10:29:05.924Z,21.23
2019-01-30T10:32:02.448Z,19.90
2019-01-30T10:41:37.281Z,20.30
2019-01-30T11:07:37.964Z,18.92
2019-01-30T11:10:37.566Z,17.90
2019-01-30T11:14:07.674Z,17.90
2019-01-30T11:17:04.052Z,19.20
2019-01-30T11:19:59.858Z,17.57
2019-01-30T11:23:06.034Z,19.25
2019-01-30T11:26:43.728Z,17.50
2019-01-30T11:43:48.056Z,21.00
2019-01-30T11:46:48.190Z,17.05
2019-01-30T11:49:53.974Z,18.17
2019-01-30T11:56:04.168Z,20.05
2019-01-30T11:59:22.517Z,19.07
2019-01-30T12:09:25.485Z,21.02
2019-01-30T12:12:19.382Z,19.35
2019-01-30T12:15:55.738Z,18.77
2019-01-30T12:18:48.030Z,18.55
2019-01-30T12:21:47.494Z,19.52
2019-01-30T12:24:59.188Z,20.43
2019-01-30T12:27:58.505Z,20.75
2019-01-30T12:30:58.747Z,21.35
2019-01-30T12:33:53.624Z,20.12
2019-01-30T12:36:48.871Z,20.15
2019-01-30T12:39:43.915Z,19.90
2019-01-30T12:42:39.123Z,20.80
2019-01-30T12:45:36.127Z,20.75
2019-01-30T12:48:31.586Z,19.00
2019-01-30T12:51:29.678Z,19.15
2019-01-30T12:58:03.582Z,22.20
2019-01-30T13:01:01.820Z,23.57
2019-01-30T13:03:56.656Z,24.45
2019-01-30T13:06:51.301Z,26.77
2019-01-30T13:09:46.384Z,27.20
2019-01-30T13:12:41.051Z,28.80
2019-01-30T13:15:35.964Z,29.82
2019-01-30T13:18:30.910Z,31.35
2019-01-30T13:21:27.453Z,34.50
2019-01-30T13:24:22.193Z,36.25
2019-01-30T13:27:17.475Z,35.98
2019-01-30T13:30:18.374Z,37.13
2019-01-30T13:33:15.404Z,41.73
2019-01-30T13:36:10.412Z,44.40
2019-01-30T13:39:05.743Z,45.20
2019-01-30T13:42:00.670Z,54.77
2019-01-30T13:44:56.016Z,54.05
2019-01-30T13:47:50.704Z,53.33
2019-01-30T13:50:45.479Z,46.48
2019-01-30T13:53:40.186Z,51.95
2019-01-30T13:56:34.544Z,53.60
2019-01-30T13:59:29.371Z,54.13
2019-01-30T14:02:24.487Z,54.58
2019-01-30T14:05:20.025Z,53.20
2019-01-30T14:08:18.429Z,53.68
2019-01-30T14:11:13.406Z,59.25
2019-01-30T14:14:08.420Z,56.88
2019-01-30T14:17:03.919Z,51.23
2019-01-30T14:20:49.388Z,49.95
2019-01-30T14:23:45.027Z,47.05
2019-01-30T14:30:15.272Z,43.60
2019-01-30T14:33:41.588Z,40.15
2019-01-30T14:37:09.472Z,37.55
2019-01-30T14:40:03.758Z,37.15
2019-01-30T14:42:58.583Z,36.42
2019-01-30T14:45:53.008Z,36.38
2019-01-30T14:48:47.825Z,35.23
2019-01-30T14:51:45.257Z,35.30
2019-01-30T14:54:37.683Z,36.48
2019-01-30T14:57:32.320Z,38.35
2019-01-30T15:00:30.434Z,41.90
2019-01-30T15:03:25.277Z,40.05
2019-01-30T15:06:19.915Z,41.25
2019-01-30T15:09:15.431Z,39.15
2019-01-30T15:12:10.370Z,39.10
2019-01-30T15:15:05.383Z,41.02
2019-01-30T15:18:00.466Z,41.98
2019-01-30T15:20:57.552Z,41.40
2019-01-30T15:23:52.416Z,43.42
2019-01-30T15:26:47.100Z,43.23
2019-01-30T15:29:41.945Z,44.65
2019-01-30T15:32:36.371Z,50.30
2019-01-30T15:35:33.765Z,50.10
2019-01-30T15:38:26.534Z,49.60
2019-01-30T15:41:21.391Z,48.87
2019-01-30T15:44:16.841Z,50.33
2019-01-30T15:47:11.555Z,49.10
2019-01-30T15:50:06.894Z,47.58
2019-01-30T15:53:03.744Z,42.80
2019-01-30T15:55:58.772Z,45.88
2019-01-30T15:58:53.901Z,44.27
2019-01-30T16:01:50.012Z,46.08
2019-01-30T16:04:44.427Z,44.60
2019-01-30T16:07:39.051Z,44.85
2019-01-30T16:10:33.892Z,45.85
2019-01-30T16:13:29.076Z,44.20
2019-01-30T16:16:23.782Z,43.60
2019-01-30T16:19:18.365Z,42.88
2019-01-30T16:22:13.302Z,44.53
2019-01-30T16:25:09.461Z,47.73
2019-01-30T16:28:03.981Z,51.77
2019-01-30T16:30:59.308Z,52.62
2019-01-30T16:33:54.082Z,58.23
2019-01-30T16:36:49.306Z,58.65
2019-01-30T16:39:44.469Z,51.73
2019-01-30T16:42:39.706Z,52.08
2019-01-30T16:45:36.152Z,53.35
2019-01-30T16:48:31.130Z,53.73
2019-01-30T16:51:25.870Z,57.65
2019-01-30T16:54:21.487Z,57.00
2019-01-30T16:57:16.550Z,54.73
2019-01-30T17:00:14.526Z,54.13
2019-01-30T17:03:09.472Z,52.20
2019-01-30T17:06:07.439Z,53.52
2019-01-30T17:08:59.445Z,50.20
2019-01-30T17:11:55.072Z,48.95
2019-01-30T17:14:49.851Z,46.92
2019-01-30T17:17:45.007Z,49.33
2019-01-30T17:20:41.148Z,48.28
2019-01-30T17:23:36.238Z,48.45
2019-01-30T17:26:31.259Z,49.88
2019-01-30T17:29:29.336Z,52.08
2019-01-30T17:32:24.169Z,50.92
2019-01-30T17:35:19.270Z,50.48
2019-01-30T17:38:14.662Z,48.70
2019-01-30T17:41:09.798Z,45.83
2019-01-30T17:44:03.993Z,44.93
2019-01-30T17:46:58.597Z,41.60
2019-01-30T17:49:52.919Z,41.45
2019-01-30T17:52:47.052Z,42.43
2019-01-30T17:55:41.460Z,40.08
2019-01-30T17:58:36.192Z,40.10
2019-01-30T18:01:30.601Z,37.73
2019-01-30T18:04:25.300Z,35.80
2019-01-30T18:07:22.668Z,35.55
2019-01-30T18:10:17.900Z,35.08
2019-01-30T18:13:12.598Z,34.25
2019-01-30T18:16:07.181Z,33.20
2019-01-30T18:19:01.786Z,33.65
2019-01-30T18:21:56.540Z,33.65
2019-01-30T18:24:51.217Z,32.77
2019-01-30T18:27:45.890Z,32.50
2019-01-30T18:30:40.575Z,31.93
2019-01-30T18:33:35.544Z,31.30
2019-01-30T18:36:40.335Z,30.77
2019-01-30T18:39:24.927Z,30.80
2019-01-30T18:42:19.641Z,29.10
2019-01-30T18:45:16.671Z,29.15
2019-01-30T18:48:11.393Z,29.65
2019-01-30T18:51:05.728Z,29.93
2019-01-30T18:54:00.594Z,29.12
2019-01-30T18:56:55.892Z,28.92
2019-01-30T18:59:50.471Z,28.67
2019-01-30T19:02:44.945Z,28.42
2019-01-30T19:05:39.443Z,28.30
2019-01-30T19:08:33.907Z,28.40
2019-01-30T19:11:28.965Z,28.57
2019-01-30T19:14:23.678Z,28.70
2019-01-30T19:17:18.035Z,28.52
2019-01-30T19:20:14.978Z,28.02
2019-01-30T19:23:12.445Z,29.60
2019-01-30T19:26:07.122Z,29.75
2019-01-30T19:29:01.420Z,30.37
2019-01-30T19:31:56.134Z,30.12
2019-01-30T19:34:50.572Z,31.07
2019-01-30T19:37:45.025Z,29.20
2019-01-30T19:40:39.727Z,29.45
2019-01-30T19:43:34.382Z,30.52
2019-01-30T19:46:28.991Z,30.50
2019-01-30T19:49:23.515Z,29.27
2019-01-30T19:52:17.998Z,30.02
2019-01-30T19:55:12.656Z,29.60
2019-01-30T19:58:07.367Z,29.77
2019-01-30T20:01:02.463Z,31.27
2019-01-30T20:03:56.614Z,30.25
2019-01-30T20:06:51.157Z,30.07
2019-01-30T20:09:45.523Z,29.73
2019-01-30T20:12:40.057Z,29.92
2019-01-30T20:15:34.874Z,31.93
2019-01-30T20:18:29.337Z,31.05
2019-01-30T20:21:23.690Z,30.80
2019-01-30T20:24:18.019Z,30.43
2019-01-30T20:27:12.376Z,30.30
2019-01-30T20:30:07.316Z,30.40
2019-01-30T20:33:02.072Z,32.83
2019-01-30T20:35:56.381Z,30.20
2019-01-30T20:38:51.133Z,29.80
2019-01-30T20:41:45.587Z,30.27
2019-01-30T20:44:40.218Z,31.43
2019-01-30T20:47:34.956Z,29.70
2019-01-30T20:50:31.444Z,31.33
2019-01-30T20:53:25.832Z,30.08
2019-01-30T20:56:20.266Z,28.17
2019-01-30T20:59:14.796Z,29.27
2019-01-30T21:02:10.174Z,28.97
2019-01-30T21:05:04.893Z,28.67
2019-01-30T21:08:03.025Z,30.00
2019-01-30T21:10:57.512Z,31.57
2019-01-30T21:13:52.206Z,29.65
2019-01-30T21:16:46.462Z,29.77
2019-01-30T21:19:41.102Z,28.73
2019-01-30T21:22:35.340Z,29.17
2019-01-30T21:25:30.149Z,27.97
2019-01-30T21:28:24.923Z,28.17
2019-01-30T21:31:19.249Z,28.10
2019-01-30T21:34:14.096Z,29.43
2019-01-30T21:37:08.538Z,29.67
2019-01-30T21:40:02.895Z,29.07
2019-01-30T21:42:57.262Z,31.27
2019-01-30T21:45:51.954Z,32.07
2019-01-30T21:48:46.385Z,32.40
2019-01-30T21:51:40.879Z,33.33
2019-01-30T21:54:35.497Z,34.23
2019-01-30T21:57:32.188Z,36.27
2019-01-30T22:00:31.262Z,48.27
2019-01-30T22:03:26.146Z,46.50
2019-01-30T22:06:20.899Z,49.03
2019-01-30T22:09:15.661Z,52.13
2019-01-30T22:12:10.419Z,48.43
2019-01-30T22:15:04.968Z,53.57
2019-01-30T22:17:59.668Z,63.40
2019-01-30T22:20:53.984Z,68.65
2019-01-30T22:23:48.624Z,78.77
2019-01-30T22:26:43.274Z,90.13
2019-01-30T22:29:38.901Z,78.20
2019-01-30T22:32:33.846Z,83.83
2019-01-30T22:35:28.247Z,84.47
2019-01-30T22:38:22.713Z,92.60
2019-01-30T22:41:17.128Z,121.87
2019-01-30T22:44:11.800Z,125.37
2019-01-30T22:47:06.375Z,126.30
2019-01-30T22:50:00.845Z,134.83
2019-01-30T22:52:55.617Z,139.83
2019-01-30T22:55:49.937Z,134.40
2019-01-30T22:58:44.304Z,128.77
2019-01-30T23:02:01.397Z,118.43
2019-01-30T23:05:17.690Z,109.90
2019-01-30T23:08:33.614Z,109.13
2019-01-30T23:12:03.848Z,111.20
2019-01-30T23:15:05.070Z,121.97
2019-01-30T23:18:54.065Z,123.17
2019-01-30T23:21:58.528Z,121.07
2019-01-30T23:25:43.852Z,137.70
2019-01-30T23:29:28.192Z,138.87
2019-01-30T23:32:54.178Z,140.40
2019-01-30T23:36:33.409Z,137.23
2019-01-30T23:40:08.784Z,134.07
2019-01-30T23:43:29.314Z,128.30
2019-01-30T23:46:43.792Z,128.00
2019-01-30T23:50:29.701Z,131.20
2019-01-30T23:53:53.753Z,136.33
2019-01-30T23:57:22.972Z,141.50
